createdAt,value
2023-05-10T00:01:53.706Z,8.95
2023-05-10T00:04:21.811Z,7.45
2023-05-10T00:14:13.776Z,7.13
2023-05-10T00:16:43.134Z,8.35
2023-05-10T00:19:11.033Z,9.05
2023-05-10T00:21:38.803Z,9.70
2023-05-10T00:24:06.989Z,8.80
2023-05-10T00:26:34.887Z,9.25
2023-05-10T00:29:02.980Z,9.13
2023-05-10T00:31:30.931Z,7.57
2023-05-10T00:34:00.408Z,10.50
2023-05-10T00:36:28.711Z,7.30
2023-05-10T00:38:56.639Z,10.23
2023-05-10T00:41:24.755Z,7.88
2023-05-10T00:43:52.730Z,8.82
2023-05-10T00:46:20.662Z,8.48
2023-05-10T00:48:48.535Z,8.70
2023-05-10T00:51:18.002Z,9.13
2023-05-10T00:53:46.372Z,10.35
2023-05-10T00:56:14.611Z,8.35
2023-05-10T00:58:42.580Z,10.85
2023-05-10T01:01:10.988Z,10.27
2023-05-10T01:03:39.431Z,8.10
2023-05-10T01:06:07.712Z,8.50
2023-05-10T01:08:37.080Z,8.50
2023-05-10T01:11:04.849Z,9.18
2023-05-10T01:13:34.216Z,7.95
2023-05-10T01:16:03.465Z,8.10
2023-05-10T01:18:31.895Z,7.35
2023-05-10T01:21:03.601Z,7.63
2023-05-10T01:23:37.037Z,8.20
2023-05-10T01:26:19.559Z,7.10
2023-05-10T01:29:05.825Z,6.93
2023-05-10T01:31:42.695Z,8.50
2023-05-10T01:34:15.606Z,6.22
2023-05-10T01:36:45.780Z,6.25
2023-05-10T01:39:15.454Z,6.55
2023-05-10T01:41:47.167Z,6.10
2023-05-10T01:44:19.635Z,7.38
2023-05-10T01:46:49.251Z,5.93
2023-05-10T01:49:22.406Z,5.97
2023-05-10T01:51:52.758Z,5.65
2023-05-10T01:54:22.200Z,5.88
2023-05-10T01:56:52.793Z,6.38
2023-05-10T01:59:21.335Z,5.93
2023-05-10T02:01:49.759Z,5.97
2023-05-10T02:04:20.743Z,6.40
2023-05-10T02:06:49.931Z,5.97
2023-05-10T02:09:18.505Z,5.50
2023-05-10T02:11:46.261Z,5.90
2023-05-10T02:14:14.489Z,5.80
2023-05-10T02:19:11.031Z,5.47
2023-05-10T02:21:41.414Z,5.88
2023-05-10T02:24:10.463Z,6.03
2023-05-10T02:26:38.837Z,7.93
2023-05-10T02:29:07.734Z,5.68
2023-05-10T02:31:36.633Z,7.45
2023-05-10T02:34:06.312Z,7.53
2023-05-10T02:36:34.489Z,7.13
2023-05-10T02:39:04.393Z,6.85
2023-05-10T02:41:33.201Z,8.27
2023-05-10T02:44:03.670Z,8.35
2023-05-10T02:46:31.772Z,8.05
2023-05-10T02:48:59.851Z,6.35
2023-05-10T02:51:29.341Z,8.02
2023-05-10T02:53:57.637Z,8.32
2023-05-10T02:56:27.751Z,9.57
2023-05-10T02:58:55.620Z,9.15
2023-05-10T03:01:23.490Z,9.57
2023-05-10T03:03:51.303Z,8.52
2023-05-10T03:06:19.289Z,9.38
2023-05-10T03:08:47.409Z,9.52
2023-05-10T03:11:23.691Z,10.00
2023-05-10T03:13:58.213Z,10.00
2023-05-10T03:16:28.661Z,12.25
2023-05-10T03:18:59.032Z,11.77
2023-05-10T03:21:28.181Z,12.80
2023-05-10T03:24:01.772Z,12.68
2023-05-10T03:26:30.447Z,11.43
2023-05-10T03:29:08.765Z,11.57
2023-05-10T03:31:37.016Z,11.60
2023-05-10T03:34:04.849Z,12.27
2023-05-10T03:36:32.701Z,12.80
2023-05-10T03:41:28.748Z,9.68
2023-05-10T03:43:56.600Z,10.23
2023-05-10T03:46:26.018Z,10.90
2023-05-10T03:48:54.314Z,9.45
2023-05-10T03:51:23.245Z,8.93
2023-05-10T03:53:51.013Z,9.55
2023-05-10T03:56:18.960Z,9.35
2023-05-10T03:58:47.302Z,9.73
2023-05-10T04:01:15.057Z,9.02
2023-05-10T04:03:44.551Z,8.65
2023-05-10T04:06:13.625Z,9.65
2023-05-10T04:08:41.433Z,9.02
2023-05-10T04:11:09.532Z,9.70
2023-05-10T04:13:37.646Z,8.20
2023-05-10T04:16:05.620Z,9.63
2023-05-10T04:18:33.442Z,7.53
2023-05-10T04:21:02.806Z,8.45
2023-05-10T04:23:30.566Z,8.07
2023-05-10T04:26:01.507Z,7.88
2023-05-10T04:28:29.470Z,7.22
2023-05-10T04:31:02.734Z,7.15
2023-05-10T04:33:30.817Z,6.95
2023-05-10T04:35:58.552Z,6.60
2023-05-10T04:38:28.000Z,7.22
2023-05-10T04:40:55.983Z,6.53
2023-05-10T04:43:23.775Z,6.72
2023-05-10T04:45:51.656Z,6.85
2023-05-10T04:48:19.384Z,6.95
2023-05-10T04:50:47.168Z,7.07
2023-05-10T04:53:15.998Z,7.15
2023-05-10T04:55:45.195Z,6.75
2023-05-10T04:58:13.012Z,7.80
2023-05-10T05:00:40.733Z,7.40
2023-05-10T05:03:08.743Z,8.90
2023-05-10T05:05:36.646Z,8.10
2023-05-10T05:08:04.486Z,7.75
2023-05-10T05:10:32.269Z,7.80
2023-05-10T05:13:01.402Z,8.27
2023-05-10T05:15:29.362Z,7.65
2023-05-10T05:17:57.217Z,8.68
2023-05-10T05:20:24.993Z,7.63
2023-05-10T05:22:52.800Z,8.00
2023-05-10T05:25:20.597Z,6.90
2023-05-10T05:27:48.321Z,7.43
2023-05-10T05:30:18.229Z,7.75
2023-05-10T05:32:48.248Z,8.50
2023-05-10T05:35:16.378Z,9.60
2023-05-10T05:42:39.848Z,8.60
2023-05-10T05:45:09.821Z,10.15
2023-05-10T05:47:38.996Z,9.77
2023-05-10T05:50:07.393Z,12.27
2023-05-10T05:52:35.345Z,10.68
2023-05-10T05:55:03.812Z,11.10
2023-05-10T05:57:31.669Z,13.07
2023-05-10T05:59:59.446Z,11.20
2023-05-10T06:02:27.521Z,12.30
2023-05-10T06:04:56.846Z,11.20
2023-05-10T06:07:24.597Z,12.10
2023-05-10T06:09:52.429Z,11.98
2023-05-10T06:12:20.197Z,10.90
2023-05-10T06:14:48.109Z,12.05
2023-05-10T06:17:15.918Z,11.25
2023-05-10T06:19:43.598Z,9.93
2023-05-10T06:22:12.931Z,10.75
2023-05-10T06:24:40.786Z,10.80
2023-05-10T06:27:08.583Z,9.82
2023-05-10T06:29:36.350Z,8.98
2023-05-10T06:32:04.216Z,9.90
2023-05-10T06:34:32.647Z,8.98
2023-05-10T06:37:00.490Z,9.20
2023-05-10T06:39:30.393Z,8.50
2023-05-10T06:41:58.153Z,8.48
2023-05-10T06:44:28.187Z,8.02
2023-05-10T06:46:56.796Z,8.98
2023-05-10T06:49:24.586Z,6.75
2023-05-10T06:51:52.852Z,8.15
2023-05-10T06:56:49.617Z,6.80
2023-05-10T06:59:17.499Z,6.82
2023-05-10T07:01:45.500Z,6.90
2023-05-10T07:04:14.114Z,7.00
2023-05-10T07:06:42.102Z,7.18
2023-05-10T07:09:09.846Z,7.68
2023-05-10T07:11:38.513Z,6.80
2023-05-10T07:14:07.678Z,7.05
2023-05-10T07:16:35.723Z,8.50
2023-05-10T07:19:03.626Z,7.07
2023-05-10T07:21:32.297Z,7.10
2023-05-10T07:24:01.277Z,6.55
2023-05-10T07:26:29.398Z,6.88
2023-05-10T07:28:57.168Z,7.07
2023-05-10T07:31:26.397Z,6.18
2023-05-10T07:33:54.248Z,7.53
2023-05-10T07:36:22.237Z,7.28
2023-05-10T07:38:50.549Z,7.55
2023-05-10T07:41:18.277Z,6.93
2023-05-10T07:43:46.008Z,7.10
2023-05-10T07:46:13.882Z,7.65
2023-05-10T07:48:43.058Z,6.97
2023-05-10T07:51:11.642Z,8.02
2023-05-10T07:53:39.777Z,8.02
2023-05-10T07:56:22.466Z,8.35
2023-05-10T07:58:50.418Z,6.65
2023-05-10T08:01:18.280Z,8.80
2023-05-10T08:03:47.737Z,8.25
2023-05-10T08:06:16.367Z,8.05
2023-05-10T08:08:44.433Z,7.15
2023-05-10T08:11:12.226Z,7.28
2023-05-10T08:13:40.117Z,7.50
2023-05-10T08:16:08.338Z,7.75
2023-05-10T08:18:36.436Z,6.50
2023-05-10T08:21:05.861Z,6.18
2023-05-10T08:23:33.802Z,7.25
2023-05-10T08:26:02.039Z,6.32
2023-05-10T08:28:29.905Z,6.75
2023-05-10T08:30:57.846Z,6.78
2023-05-10T08:33:26.047Z,6.97
2023-05-10T08:35:53.967Z,7.28
2023-05-10T08:38:23.194Z,6.45
2023-05-10T08:40:51.857Z,6.82
2023-05-10T08:43:20.183Z,7.57
2023-05-10T08:45:48.178Z,5.57
2023-05-10T08:48:16.355Z,7.03
2023-05-10T08:53:13.162Z,5.65
2023-05-10T08:55:43.676Z,5.78
2023-05-10T08:58:12.065Z,5.72
2023-05-10T09:00:40.034Z,5.90
2023-05-10T09:03:08.295Z,5.68
2023-05-10T09:05:37.762Z,5.30
2023-05-10T09:08:06.323Z,6.68
2023-05-10T09:10:34.353Z,5.90
2023-05-10T09:13:04.139Z,5.95
2023-05-10T09:15:32.215Z,6.22
2023-05-10T09:18:03.335Z,6.22
2023-05-10T09:20:32.167Z,6.63
2023-05-10T09:23:00.008Z,5.88
2023-05-10T09:25:27.930Z,6.47
2023-05-10T09:27:55.719Z,5.85
2023-05-10T09:30:28.742Z,5.68
2023-05-10T09:32:57.331Z,5.03
2023-05-10T09:35:27.985Z,5.68
2023-05-10T09:37:58.280Z,5.18
2023-05-10T09:40:27.112Z,5.68
2023-05-10T09:42:55.817Z,5.78
2023-05-10T09:45:23.942Z,4.97
2023-05-10T09:47:53.478Z,5.70
2023-05-10T09:50:21.666Z,5.03
2023-05-10T09:52:50.499Z,5.38
2023-05-10T09:55:18.835Z,5.93
2023-05-10T09:57:47.308Z,5.15
2023-05-10T10:00:18.941Z,5.93
2023-05-10T10:02:47.780Z,5.13
2023-05-10T10:05:17.330Z,5.72
2023-05-10T10:07:45.563Z,4.55
2023-05-10T10:10:13.570Z,4.82
2023-05-10T10:17:37.894Z,5.38
2023-05-10T10:20:05.937Z,5.00
2023-05-10T10:25:02.818Z,4.50
2023-05-10T10:27:35.726Z,4.35
2023-05-10T10:30:05.970Z,3.72
2023-05-10T10:32:38.203Z,4.53
2023-05-10T10:35:06.516Z,3.75
2023-05-10T10:37:45.308Z,4.13
2023-05-10T10:40:26.805Z,4.05
2023-05-10T10:42:55.284Z,3.80
2023-05-10T10:45:23.766Z,4.22
2023-05-10T10:47:55.748Z,3.45
2023-05-10T10:50:23.643Z,3.65
2023-05-10T10:52:53.215Z,3.83
2023-05-10T10:55:23.527Z,3.95
2023-05-10T10:57:54.592Z,3.78
2023-05-10T11:00:23.931Z,3.75
2023-05-10T11:02:52.705Z,3.33
2023-05-10T11:05:28.164Z,3.30
2023-05-10T11:07:56.723Z,3.53
2023-05-10T11:10:24.713Z,3.25
2023-05-10T11:13:01.959Z,3.60
2023-05-10T11:15:33.367Z,3.17
2023-05-10T11:18:01.713Z,4.10
2023-05-10T11:20:34.269Z,3.67
2023-05-10T11:23:13.108Z,3.65
2023-05-10T11:25:43.521Z,4.28
2023-05-10T11:28:13.263Z,4.15
2023-05-10T11:30:41.727Z,4.05
2023-05-10T11:33:10.118Z,3.78
2023-05-10T11:35:43.438Z,3.53
2023-05-10T11:38:12.019Z,3.38
2023-05-10T11:40:40.491Z,3.47
2023-05-10T11:43:08.513Z,4.80
2023-05-10T11:48:06.095Z,3.70
2023-05-10T11:50:34.691Z,3.80
2023-05-10T11:53:02.577Z,3.85
2023-05-10T11:55:31.651Z,3.97
2023-05-10T11:58:02.789Z,3.65
2023-05-10T12:00:31.129Z,2.97
2023-05-10T12:02:59.072Z,3.58
2023-05-10T12:05:28.476Z,3.42
2023-05-10T12:08:13.660Z,3.45
2023-05-10T12:10:41.718Z,3.90
2023-05-10T12:15:38.115Z,3.05
2023-05-10T12:18:06.358Z,2.60
2023-05-10T12:20:35.586Z,1.67
2023-05-10T12:23:04.472Z,3.13
2023-05-10T12:25:32.977Z,2.88
2023-05-10T12:28:01.821Z,2.25
2023-05-10T12:30:30.441Z,2.45
2023-05-10T12:33:02.080Z,1.90
2023-05-10T12:35:32.405Z,2.55
2023-05-10T12:38:01.648Z,2.58
2023-05-10T12:40:30.371Z,3.10
2023-05-10T12:42:58.290Z,2.30
2023-05-10T12:47:53.709Z,2.13
2023-05-10T12:50:21.601Z,2.05
2023-05-10T12:52:49.325Z,2.42
2023-05-10T12:55:18.469Z,2.30
2023-05-10T12:57:46.290Z,1.98
2023-05-10T13:00:14.973Z,2.33
2023-05-10T13:02:42.965Z,2.60
2023-05-10T13:05:11.045Z,1.90
2023-05-10T13:07:38.810Z,2.00
2023-05-10T13:10:08.629Z,2.63
2023-05-10T13:12:43.776Z,2.25
2023-05-10T13:15:11.898Z,1.67
2023-05-10T13:17:39.992Z,2.78
2023-05-10T13:20:08.405Z,3.28
2023-05-10T13:22:40.295Z,2.67
2023-05-10T13:25:08.797Z,2.78
2023-05-10T13:30:06.106Z,2.10
2023-05-10T13:32:34.909Z,2.00
2023-05-10T13:35:04.208Z,2.45
2023-05-10T13:37:32.112Z,2.28
2023-05-10T13:40:00.046Z,2.22
2023-05-10T13:42:28.168Z,2.15
2023-05-10T13:44:55.889Z,1.88
2023-05-10T13:47:25.069Z,2.33
2023-05-10T13:49:52.854Z,1.98
2023-05-10T13:52:20.629Z,1.80
2023-05-10T13:54:48.679Z,2.80
2023-05-10T13:57:17.901Z,2.65
2023-05-10T13:59:45.764Z,1.95
2023-05-10T14:02:14.224Z,1.35
2023-05-10T14:04:43.614Z,1.77
2023-05-10T14:07:11.454Z,1.58
2023-05-10T14:09:39.307Z,2.25
2023-05-10T14:12:07.226Z,1.58
2023-05-10T14:14:35.137Z,2.13
2023-05-10T14:17:03.224Z,1.95
2023-05-10T14:19:33.432Z,1.75
2023-05-10T14:22:02.767Z,1.80
2023-05-10T14:24:30.651Z,1.63
2023-05-10T14:26:58.408Z,1.50
2023-05-10T14:29:26.269Z,2.03
2023-05-10T14:31:54.179Z,1.95
2023-05-10T14:34:22.098Z,2.33
2023-05-10T14:36:50.991Z,1.60
2023-05-10T14:39:20.216Z,1.73
2023-05-10T14:41:48.437Z,2.58
2023-05-10T14:44:17.110Z,1.85
2023-05-10T14:46:44.771Z,1.90
2023-05-10T14:49:12.544Z,2.25
2023-05-10T14:51:40.324Z,1.90
2023-05-10T14:54:08.188Z,1.55
2023-05-10T14:56:38.300Z,1.73
2023-05-10T14:59:06.063Z,1.55
2023-05-10T15:01:35.708Z,1.70
2023-05-10T15:04:04.154Z,1.95
2023-05-10T15:06:32.871Z,2.28
2023-05-10T15:09:00.755Z,1.92
2023-05-10T15:13:57.685Z,2.10
2023-05-10T15:16:25.771Z,1.65
2023-05-10T15:18:53.923Z,2.00
2023-05-10T15:21:22.435Z,1.70
2023-05-10T15:23:50.182Z,1.60
2023-05-10T15:26:18.143Z,1.80
2023-05-10T15:31:14.868Z,1.90
2023-05-10T15:33:42.781Z,2.33
2023-05-10T15:36:10.716Z,1.85
2023-05-10T15:41:06.763Z,1.70
2023-05-10T15:43:34.800Z,1.88
2023-05-10T15:48:32.448Z,1.80
2023-05-10T15:51:00.574Z,1.77
2023-05-10T15:53:28.675Z,1.48
2023-05-10T15:58:24.246Z,1.60
2023-05-10T16:00:52.161Z,1.40
2023-05-10T16:03:20.229Z,1.58
2023-05-10T16:05:49.614Z,1.45
2023-05-10T16:08:17.481Z,1.30
2023-05-10T16:13:15.094Z,1.40
2023-05-10T16:15:43.217Z,1.77
2023-05-10T16:18:11.791Z,1.45
2023-05-10T16:20:39.677Z,1.63
2023-05-10T16:23:09.347Z,1.80
2023-05-10T16:25:37.256Z,1.40
2023-05-10T16:30:32.898Z,1.52
2023-05-10T16:33:01.758Z,1.52
2023-05-10T16:35:30.603Z,2.03
2023-05-10T16:37:58.456Z,1.45
2023-05-10T16:42:55.314Z,1.50
2023-05-10T16:45:23.139Z,1.20
2023-05-10T16:50:18.544Z,1.17
2023-05-10T16:52:46.410Z,1.67
2023-05-10T16:55:14.316Z,1.27
2023-05-10T16:57:42.077Z,0.95
2023-05-10T17:00:12.457Z,1.40
2023-05-10T17:02:40.670Z,1.48
2023-05-10T17:05:08.968Z,2.08
2023-05-10T17:07:36.800Z,1.42
2023-05-10T17:10:04.823Z,1.73
2023-05-10T17:15:00.415Z,0.88
2023-05-10T17:17:29.763Z,1.55
2023-05-10T17:19:58.585Z,1.45
2023-05-10T17:22:26.586Z,1.45
2023-05-10T17:24:54.319Z,1.55
2023-05-10T17:27:22.138Z,1.83
2023-05-10T17:29:50.009Z,1.58
2023-05-10T17:32:17.956Z,1.73
2023-05-10T17:34:47.463Z,1.50
2023-05-10T17:37:15.330Z,1.23
2023-05-10T17:39:43.210Z,1.40
2023-05-10T17:44:40.148Z,1.65
2023-05-10T17:47:08.567Z,1.50
2023-05-10T17:49:36.391Z,1.65
2023-05-10T17:52:05.794Z,1.40
2023-05-10T17:54:34.046Z,1.65
2023-05-10T17:57:03.680Z,1.63
2023-05-10T17:59:31.614Z,1.40
2023-05-10T18:01:59.621Z,1.23
2023-05-10T18:04:27.613Z,1.20
2023-05-10T18:07:01.355Z,1.83
2023-05-10T18:09:30.990Z,1.98
2023-05-10T18:11:59.385Z,2.00
2023-05-10T18:14:39.941Z,2.22
2023-05-10T18:17:08.947Z,1.95
2023-05-10T18:19:36.843Z,1.88
2023-05-10T18:22:05.072Z,2.38
2023-05-10T18:24:39.542Z,1.98
2023-05-10T18:27:08.801Z,2.15
2023-05-10T18:29:37.556Z,2.30
2023-05-10T18:32:05.755Z,2.10
2023-05-10T18:34:33.648Z,2.15
2023-05-10T18:37:02.553Z,2.30
2023-05-10T18:39:30.821Z,1.80
2023-05-10T18:42:00.457Z,1.98
2023-05-10T18:44:29.033Z,1.88
2023-05-10T18:46:56.854Z,1.55
2023-05-10T18:49:24.598Z,2.22
2023-05-10T18:51:52.517Z,1.45
2023-05-10T18:54:20.245Z,1.27
2023-05-10T18:56:48.781Z,1.50
2023-05-10T18:59:18.139Z,1.45
2023-05-10T19:01:46.043Z,1.30
2023-05-10T19:04:14.026Z,1.65
2023-05-10T19:06:42.345Z,1.45
2023-05-10T19:09:10.769Z,1.80
2023-05-10T19:11:38.596Z,1.55
2023-05-10T19:14:06.703Z,1.35
2023-05-10T19:19:05.226Z,1.17
2023-05-10T19:21:33.503Z,1.40
2023-05-10T19:24:01.727Z,1.35
2023-05-10T19:28:58.021Z,1.27
2023-05-10T19:31:26.023Z,1.35
2023-05-10T19:33:54.204Z,1.20
2023-05-10T19:36:23.448Z,1.10
2023-05-10T19:38:52.470Z,1.08
2023-05-10T19:41:20.692Z,1.58
2023-05-10T19:43:48.630Z,1.58
2023-05-10T19:46:18.630Z,1.40
2023-05-10T19:48:51.907Z,1.35
2023-05-10T19:51:20.132Z,1.23
2023-05-10T19:53:49.328Z,1.20
2023-05-10T19:56:18.463Z,1.05
2023-05-10T19:58:46.662Z,1.27
2023-05-10T20:03:42.393Z,1.02
2023-05-10T20:08:38.037Z,1.05
2023-05-10T20:11:07.424Z,1.17
2023-05-10T20:13:35.242Z,1.73
2023-05-10T20:16:05.153Z,1.35
2023-05-10T20:18:33.358Z,1.23
2023-05-10T20:21:01.953Z,1.60
2023-05-10T20:23:29.866Z,1.23
2023-05-10T20:25:57.768Z,1.25
2023-05-10T20:28:27.251Z,1.50
2023-05-10T20:30:55.831Z,1.38
2023-05-10T20:33:23.947Z,1.35
2023-05-10T20:38:20.211Z,1.10
2023-05-10T20:40:49.039Z,1.10
2023-05-10T20:43:16.843Z,1.17
2023-05-10T20:45:46.185Z,1.05
2023-05-10T20:48:14.358Z,1.20
2023-05-10T20:50:42.128Z,1.10
2023-05-10T20:53:10.327Z,0.90
2023-05-10T20:55:38.577Z,1.73
2023-05-10T20:58:06.353Z,1.15
2023-05-10T21:00:34.131Z,1.65
2023-05-10T21:03:03.519Z,1.75
2023-05-10T21:05:31.609Z,1.60
2023-05-10T21:07:59.861Z,1.60
2023-05-10T21:10:29.395Z,1.42
2023-05-10T21:12:57.174Z,1.20
2023-05-10T21:15:25.737Z,1.75
2023-05-10T21:17:54.275Z,1.20
2023-05-10T21:20:24.300Z,1.33
2023-05-10T21:22:52.247Z,1.02
2023-05-10T21:25:20.000Z,1.33
2023-05-10T21:27:47.880Z,1.15
2023-05-10T21:30:16.204Z,1.13
2023-05-10T21:32:44.443Z,1.45
2023-05-10T21:37:41.276Z,1.17
2023-05-10T21:40:09.492Z,1.20
2023-05-10T21:42:37.342Z,1.27
2023-05-10T21:45:05.477Z,1.33
2023-05-10T21:47:33.455Z,1.40
2023-05-10T21:50:01.505Z,1.20
2023-05-10T21:52:29.332Z,1.02
2023-05-10T21:54:58.590Z,0.90
2023-05-10T21:57:26.475Z,0.85
2023-05-10T21:59:54.436Z,1.17
2023-05-10T22:02:22.224Z,1.55
2023-05-10T22:04:50.314Z,1.17
2023-05-10T22:07:18.068Z,1.15
2023-05-10T22:09:46.005Z,1.40
2023-05-10T22:12:15.148Z,0.90
2023-05-10T22:14:43.005Z,1.85
2023-05-10T22:17:10.926Z,1.73
2023-05-10T22:19:38.721Z,1.33
2023-05-10T22:22:06.577Z,1.00
2023-05-10T22:24:34.343Z,0.75
2023-05-10T22:27:02.847Z,1.40
2023-05-10T22:29:32.191Z,1.70
2023-05-10T22:32:05.131Z,1.77
2023-05-10T22:34:32.950Z,1.00
2023-05-10T22:37:00.816Z,1.00
2023-05-10T22:39:28.782Z,1.60
2023-05-10T22:41:56.508Z,1.45
2023-05-10T22:44:24.382Z,1.38
2023-05-10T22:46:53.588Z,1.35
2023-05-10T22:49:21.473Z,1.00
2023-05-10T22:51:49.162Z,1.08
2023-05-10T22:54:17.004Z,1.50
2023-05-10T22:56:44.756Z,1.30
2023-05-10T22:59:12.785Z,1.33
2023-05-10T23:01:40.873Z,1.63
2023-05-10T23:04:10.162Z,1.92
2023-05-10T23:06:39.498Z,1.70
2023-05-10T23:09:07.430Z,2.05
2023-05-10T23:11:35.172Z,1.52
2023-05-10T23:14:03.150Z,1.65
2023-05-10T23:16:31.359Z,1.60
2023-05-10T23:18:59.150Z,2.20
2023-05-10T23:21:31.330Z,2.20
2023-05-10T23:23:59.915Z,1.80
2023-05-10T23:26:27.807Z,1.80
2023-05-10T23:28:55.564Z,1.65
2023-05-10T23:31:23.395Z,1.90
2023-05-10T23:33:51.224Z,1.65
2023-05-10T23:36:19.024Z,1.80
2023-05-10T23:38:48.168Z,2.00
2023-05-10T23:41:16.032Z,1.92
2023-05-10T23:43:43.795Z,2.05
2023-05-10T23:46:11.637Z,1.90
2023-05-10T23:48:39.482Z,1.67
2023-05-10T23:51:07.596Z,1.58
2023-05-10T23:56:04.908Z,2.20
2023-05-10T23:58:32.683Z,1.77
